Time;durP1;ratioP1;P1;durP2;ratioP2;P2;SDS_P1;SDS_P2;PMS_P1;PMS_P2;Temp;Humidity;BMP_temperature;BMP_pressure;BME280_temperature;BME280_humidity;BME280_pressure;Samples;Min_cycle;Max_cycle;Signal;HPM_P1;HPM_P2
2023/09/22 00:00:21;;;;;;;0.70;0.70;;;;;14.20;94819.00;;;;4976820;28;20202;-57
2023/09/22 00:02:48;;;;;;;0.40;0.40;;;;;14.20;94804.00;;;;4994789;28;20225;-58
2023/09/22 00:05:15;;;;;;;0.60;0.60;;;;;14.30;94805.00;;;;4994583;28;20196;-59
2023/09/22 00:07:43;;;;;;;0.50;0.50;;;;;14.40;94809.00;;;;4994387;28;20200;-58
2023/09/22 00:10:12;;;;;;;0.50;0.50;;;;;14.40;94808.00;;;;4993257;28;20198;-58
2023/09/22 00:12:41;;;;;;;0.53;0.53;;;;;14.30;94802.00;;;;4993749;28;20240;-59
2023/09/22 00:15:10;;;;;;;0.53;0.53;;;;;14.40;94800.00;;;;4994032;28;20198;-57
2023/09/22 00:17:36;;;;;;;0.60;0.60;;;;;14.50;94791.00;;;;4994015;28;20661;-58
2023/09/22 00:20:07;;;;;;;0.50;0.50;;;;;14.40;94786.00;;;;4976461;28;20209;-57
2023/09/22 00:22:35;;;;;;;0.60;0.60;;;;;14.30;94777.00;;;;4994249;28;20295;-57
2023/09/22 00:25:02;;;;;;;0.60;0.60;;;;;14.30;94786.00;;;;4994396;28;20201;-58
2023/09/22 00:27:29;;;;;;;0.50;0.50;;;;;14.40;94798.00;;;;4976443;28;20202;-58
2023/09/22 00:29:58;;;;;;;0.60;0.60;;;;;14.30;94792.00;;;;4993832;28;20190;-58
2023/09/22 00:32:25;;;;;;;0.60;0.60;;;;;14.40;94795.00;;;;4994224;28;20218;-57
2023/09/22 00:34:53;;;;;;;0.57;0.57;;;;;14.30;94798.00;;;;4993837;28;20198;-57
2023/09/22 00:37:20;;;;;;;0.60;0.60;;;;;14.10;94797.00;;;;4993663;28;20272;-58
2023/09/22 00:39:48;;;;;;;0.57;0.57;;;;;14.00;94816.00;;;;4993779;28;20204;-56
2023/09/22 00:42:15;;;;;;;0.83;0.70;;;;;13.90;94824.00;;;;4993938;28;20221;-56
2023/09/22 00:44:42;;;;;;;0.50;0.50;;;;;13.80;94811.00;;;;4994132;28;20519;-57
2023/09/22 00:47:13;;;;;;;0.50;0.50;;;;;13.70;94824.00;;;;4993640;28;20198;-56
2023/09/22 00:49:42;;;;;;;0.50;0.50;;;;;13.80;94828.00;;;;4993580;28;20230;-56
2023/09/22 00:52:10;;;;;;;0.60;0.60;;;;;13.50;94839.00;;;;4993670;28;20676;-57
2023/09/22 00:54:38;;;;;;;0.67;0.67;;;;;13.40;94839.00;;;;4993610;28;20198;-57
2023/09/22 00:57:06;;;;;;;0.50;0.50;;;;;13.40;94844.00;;;;4993468;28;20209;-57
2023/09/22 00:59:34;;;;;;;0.90;0.90;;;;;13.50;94839.00;;;;4993850;28;20608;-58
2023/09/22 01:02:01;;;;;;;0.60;0.60;;;;;13.50;94832.00;;;;4993667;28;20677;-57
2023/09/22 01:04:30;;;;;;;0.90;0.90;;;;;13.60;94826.00;;;;4994097;28;20198;-57
2023/09/22 01:06:58;;;;;;;0.60;0.60;;;;;13.50;94819.00;;;;4993841;28;20221;-58
2023/09/22 01:09:25;;;;;;;0.80;0.80;;;;;13.40;94814.00;;;;4993373;28;20209;-58
2023/09/22 01:11:53;;;;;;;0.67;0.67;;;;;13.30;94806.00;;;;4993127;28;20582;-58
2023/09/22 01:14:21;;;;;;;0.60;0.60;;;;;13.40;94792.00;;;;4993950;28;20520;-57
2023/09/22 01:16:50;;;;;;;0.60;0.60;;;;;13.40;94786.00;;;;4993792;28;20189;-57
2023/09/22 01:19:19;;;;;;;0.60;0.60;;;;;13.40;94789.00;;;;4993600;28;20190;-57
2023/09/22 01:21:48;;;;;;;0.70;0.70;;;;;13.40;94809.00;;;;4995568;28;20221;-56
2023/09/22 01:24:16;;;;;;;0.50;0.50;;;;;13.10;94807.00;;;;4997419;28;20653;-57
2023/09/22 01:26:43;;;;;;;0.60;0.60;;;;;13.00;94816.00;;;;4996826;28;20595;-57
2023/09/22 01:29:11;;;;;;;0.50;0.50;;;;;12.90;94808.00;;;;4997321;28;20198;-57
2023/09/22 01:31:39;;;;;;;0.70;0.70;;;;;12.80;94804.00;;;;4996890;28;20567;-57
2023/09/22 01:34:08;;;;;;;0.60;0.60;;;;;12.70;94813.00;;;;4979243;28;20202;-57
2023/09/22 01:36:35;;;;;;;0.70;0.70;;;;;12.90;94808.00;;;;4996688;28;20276;-57
2023/09/22 01:39:08;;;;;;;0.70;0.70;;;;;13.00;94801.00;;;;4997336;28;20277;-57
2023/09/22 01:41:36;;;;;;;0.50;0.50;;;;;13.00;94795.00;;;;4996970;28;20565;-57
2023/09/22 01:44:04;;;;;;;0.50;0.50;;;;;13.00;94795.00;;;;4996714;28;20217;-57
2023/09/22 01:46:31;;;;;;;0.60;0.60;;;;;12.80;94786.00;;;;4996608;28;20198;-57
2023/09/22 01:48:58;;;;;;;0.90;0.90;;;;;12.80;94777.00;;;;4997024;28;20198;-58
2023/09/22 01:51:26;;;;;;;0.80;0.80;;;;;12.90;94764.00;;;;4996532;28;20221;-58
2023/09/22 01:53:55;;;;;;;0.50;0.50;;;;;13.00;94759.00;;;;4996923;28;20218;-57
2023/09/22 01:56:23;;;;;;;0.53;0.53;;;;;13.10;94760.00;;;;4996415;28;20740;-57
2023/09/22 01:58:51;;;;;;;0.90;0.90;;;;;12.90;94775.00;;;;4996313;28;20202;-57
2023/09/22 02:01:19;;;;;;;0.67;0.67;;;;;12.90;94767.00;;;;4996294;28;20685;-56
2023/09/22 02:03:46;;;;;;;0.60;0.60;;;;;12.90;94765.00;;;;4996258;28;20624;-56
2023/09/22 02:06:14;;;;;;;0.60;0.60;;;;;13.00;94763.00;;;;4996265;28;20197;-57
2023/09/22 02:08:43;;;;;;;0.60;0.60;;;;;12.90;94760.00;;;;4996112;28;20194;-57
2023/09/22 02:11:11;;;;;;;0.73;0.73;;;;;13.00;94762.00;;;;4996696;28;20218;-58
2023/09/22 02:13:41;;;;;;;0.50;0.50;;;;;12.80;94775.00;;;;4996018;28;20288;-57
2023/09/22 02:16:08;;;;;;;0.93;0.93;;;;;12.90;94789.00;;;;4996038;28;20772;-57
2023/09/22 02:18:36;;;;;;;0.70;0.70;;;;;12.90;94777.00;;;;4996001;28;20190;-57
2023/09/22 02:21:05;;;;;;;0.63;0.63;;;;;12.90;94778.00;;;;4995899;28;20209;-57
2023/09/22 02:23:33;;;;;;;0.90;0.90;;;;;12.90;94767.00;;;;4995754;28;20202;-58
2023/09/22 02:26:07;;;;;;;0.67;0.67;;;;;13.00;94764.00;;;;4995900;28;20213;-57
2023/09/22 02:28:34;;;;;;;0.60;0.60;;;;;13.10;94771.00;;;;4996334;28;20516;-57
2023/09/22 02:31:03;;;;;;;0.50;0.50;;;;;13.10;94785.00;;;;4995669;28;20210;-57
2023/09/22 02:33:30;;;;;;;0.70;0.70;;;;;13.00;94792.00;;;;4994931;28;20222;-58
2023/09/22 02:35:59;;;;;;;0.50;0.50;;;;;12.90;94803.00;;;;4978174;28;20205;-57
2023/09/22 02:38:26;;;;;;;0.73;0.73;;;;;12.70;94806.00;;;;4995725;28;20201;-58
2023/09/22 02:40:54;;;;;;;1.43;0.93;;;;;12.70;94810.00;;;;4995370;28;20220;-57
2023/09/22 02:43:21;;;;;;;0.57;0.57;;;;;12.70;94814.00;;;;4995428;28;20191;-57
2023/09/22 02:45:49;;;;;;;0.97;0.97;;;;;12.70;94808.00;;;;4995439;28;20198;-57
2023/09/22 02:48:18;;;;;;;0.70;0.70;;;;;12.70;94801.00;;;;4995766;28;20261;-57
2023/09/22 02:50:46;;;;;;;0.70;0.70;;;;;12.80;94795.00;;;;4995144;28;20241;-58
2023/09/22 02:53:13;;;;;;;0.60;0.60;;;;;12.90;94790.00;;;;4995306;28;20313;-56
2023/09/22 02:55:41;;;;;;;0.60;0.60;;;;;12.90;94785.00;;;;4995160;28;20209;-56
2023/09/22 02:58:09;;;;;;;0.70;0.70;;;;;12.80;94789.00;;;;4995302;28;20197;-56
2023/09/22 03:00:36;;;;;;;1.00;1.00;;;;;12.90;94784.00;;;;4995275;28;20280;-57
2023/09/22 03:03:05;;;;;;;0.90;0.90;;;;;12.90;94796.00;;;;4995056;28;20194;-57
2023/09/22 03:05:34;;;;;;;0.80;0.80;;;;;12.90;94794.00;;;;4995245;28;20237;-57
2023/09/22 03:08:02;;;;;;;0.57;0.57;;;;;12.70;94795.00;;;;4994914;28;20199;-57
2023/09/22 03:10:30;;;;;;;1.33;1.00;;;;;12.60;94800.00;;;;4994892;28;20273;-57
2023/09/22 03:12:57;;;;;;;0.60;0.60;;;;;12.60;94807.00;;;;4995049;28;20233;-57
2023/09/22 03:15:25;;;;;;;0.90;0.90;;;;;12.50;94786.00;;;;4994810;28;20197;-57
2023/09/22 03:17:53;;;;;;;0.50;0.50;;;;;12.50;94795.00;;;;4994669;28;20194;-57
2023/09/22 03:20:20;;;;;;;0.50;0.50;;;;;12.60;94808.00;;;;4995126;28;20272;-57
2023/09/22 03:22:49;;;;;;;0.70;0.70;;;;;12.60;94818.00;;;;4994609;28;20220;-57
2023/09/22 03:25:17;;;;;;;0.80;0.80;;;;;12.50;94824.00;;;;4977144;28;20666;-57
2023/09/22 03:27:45;;;;;;;0.60;0.60;;;;;12.60;94817.00;;;;4994658;28;20205;-57
2023/09/22 03:30:12;;;;;;;0.57;0.57;;;;;12.80;94829.00;;;;4994585;28;20187;-57
2023/09/22 03:32:40;;;;;;;0.87;0.87;;;;;12.80;94829.00;;;;4994277;28;20685;-58
2023/09/22 03:35:08;;;;;;;0.60;0.60;;;;;12.70;94837.00;;;;4994331;28;20217;-58
2023/09/22 03:37:36;;;;;;;0.60;0.60;;;;;12.80;94853.00;;;;4994223;28;20190;-58
2023/09/22 03:40:10;;;;;;;0.60;0.60;;;;;12.80;94848.00;;;;4994339;28;20662;-57
2023/09/22 03:42:37;;;;;;;0.67;0.67;;;;;12.90;94853.00;;;;4994187;28;20210;-57
2023/09/22 03:45:07;;;;;;;0.80;0.80;;;;;12.90;94849.00;;;;4994233;28;20186;-57
2023/09/22 03:47:34;;;;;;;0.60;0.60;;;;;12.90;94833.00;;;;4994720;28;20214;-58
2023/09/22 03:50:01;;;;;;;0.50;0.50;;;;;12.90;94830.00;;;;4994766;28;20538;-57
2023/09/22 03:52:29;;;;;;;0.60;0.60;;;;;12.90;94833.00;;;;4994046;28;20596;-57
2023/09/22 03:54:56;;;;;;;0.60;0.60;;;;;13.00;94812.00;;;;4976640;28;20193;-57
2023/09/22 03:57:26;;;;;;;0.50;0.50;;;;;12.90;94800.00;;;;4993805;28;20206;-57
2023/09/22 03:59:53;;;;;;;0.60;0.60;;;;;12.90;94787.00;;;;4994184;28;20202;-57
2023/09/22 04:02:21;;;;;;;0.70;0.70;;;;;12.90;94775.00;;;;4993622;28;20214;-57
2023/09/22 04:04:48;;;;;;;0.87;0.87;;;;;13.00;94792.00;;;;4993869;28;20600;-57
2023/09/22 04:07:15;;;;;;;0.50;0.50;;;;;13.00;94788.00;;;;4993924;28;20194;-57
2023/09/22 04:09:44;;;;;;;0.60;0.60;;;;;13.00;94788.00;;;;4994138;28;20601;-57
2023/09/22 04:12:12;;;;;;;0.60;0.60;;;;;13.10;94798.00;;;;4993877;28;20221;-57
2023/09/22 04:14:40;;;;;;;0.60;0.60;;;;;13.20;94814.00;;;;4976187;28;20317;-57
2023/09/22 04:17:08;;;;;;;0.67;0.67;;;;;13.10;94804.00;;;;4993706;28;20256;-57
2023/09/22 04:19:37;;;;;;;0.70;0.70;;;;;13.20;94817.00;;;;4993765;28;20245;-57
2023/09/22 04:22:06;;;;;;;0.57;0.57;;;;;13.10;94824.00;;;;4976218;28;20313;-57
2023/09/22 04:24:34;;;;;;;0.50;0.50;;;;;13.10;94830.00;;;;4993666;28;20194;-57
2023/09/22 04:27:06;;;;;;;0.50;0.50;;;;;13.00;94818.00;;;;4993886;28;20212;-57
2023/09/22 04:29:35;;;;;;;0.87;0.80;;;;;12.90;94811.00;;;;4993860;28;20560;-57
2023/09/22 04:32:04;;;;;;;0.53;0.53;;;;;12.90;94797.00;;;;4993511;28;20210;-57
2023/09/22 04:34:32;;;;;;;0.60;0.60;;;;;12.90;94786.00;;;;4993409;28;20276;-57
2023/09/22 04:37:04;;;;;;;0.60;0.60;;;;;12.90;94780.00;;;;4993559;28;20229;-57
2023/09/22 04:39:31;;;;;;;0.60;0.60;;;;;13.10;94800.00;;;;4993701;28;20622;-57
2023/09/22 04:41:59;;;;;;;0.50;0.50;;;;;13.20;94808.00;;;;4993391;28;20228;-57
2023/09/22 04:44:27;;;;;;;0.50;0.50;;;;;13.20;94811.00;;;;4993678;28;20193;-58
2023/09/22 04:46:54;;;;;;;0.60;0.60;;;;;13.10;94812.00;;;;4993457;28;20225;-57
2023/09/22 04:49:23;;;;;;;0.50;0.50;;;;;12.80;94814.00;;;;4993818;28;20630;-57
2023/09/22 04:51:51;;;;;;;0.40;0.40;;;;;12.90;94823.00;;;;4993445;28;20213;-57
2023/09/22 04:54:19;;;;;;;0.70;0.70;;;;;12.90;94829.00;;;;4975678;28;20213;-57
2023/09/22 04:56:46;;;;;;;0.80;0.80;;;;;13.00;94848.00;;;;4995975;28;20205;-57
2023/09/22 04:59:15;;;;;;;0.97;0.97;;;;;12.80;94847.00;;;;4997231;28;20205;-57
2023/09/22 05:01:43;;;;;;;0.77;0.77;;;;;12.90;94824.00;;;;4997517;28;20214;-57
2023/09/22 05:04:10;;;;;;;0.63;0.63;;;;;12.90;94816.00;;;;4997257;28;20240;-57
2023/09/22 05:06:40;;;;;;;0.70;0.70;;;;;13.10;94824.00;;;;4997606;28;20198;-57
2023/09/22 05:09:09;;;;;;;0.57;0.57;;;;;13.00;94846.00;;;;4997410;28;20201;-57
2023/09/22 05:11:36;;;;;;;0.60;0.60;;;;;12.90;94854.00;;;;4979611;28;20316;-57
2023/09/22 05:14:04;;;;;;;0.50;0.50;;;;;12.90;94851.00;;;;4997086;28;20214;-57
2023/09/22 05:16:32;;;;;;;0.60;0.60;;;;;12.80;94858.00;;;;4997094;28;20213;-58
2023/09/22 05:19:00;;;;;;;1.10;1.10;;;;;12.90;94866.00;;;;4996913;28;20202;-57
2023/09/22 05:21:27;;;;;;;0.50;0.50;;;;;13.00;94872.00;;;;4996909;28;20265;-57
2023/09/22 05:23:56;;;;;;;0.60;0.60;;;;;12.90;94868.00;;;;4997000;28;20564;-57
2023/09/22 05:26:25;;;;;;;0.70;0.70;;;;;13.00;94863.00;;;;4996902;28;20736;-57
2023/09/22 05:28:52;;;;;;;0.67;0.67;;;;;13.00;94866.00;;;;4996956;28;20252;-57
2023/09/22 05:31:20;;;;;;;0.60;0.60;;;;;13.20;94871.00;;;;4996838;28;20218;-57
2023/09/22 05:33:47;;;;;;;0.60;0.60;;;;;13.20;94889.00;;;;4997193;28;20219;-57
2023/09/22 05:36:14;;;;;;;0.60;0.60;;;;;13.20;94882.00;;;;4996785;28;20194;-57
2023/09/22 05:38:42;;;;;;;0.67;0.67;;;;;13.00;94899.00;;;;4979120;28;20256;-56
2023/09/22 05:41:11;;;;;;;0.60;0.60;;;;;13.10;94898.00;;;;4996718;28;20218;-56
2023/09/22 05:43:40;;;;;;;0.70;0.70;;;;;13.10;94889.00;;;;4997065;28;20648;-57
2023/09/22 05:46:09;;;;;;;0.60;0.60;;;;;13.20;94904.00;;;;4996861;28;20272;-57
2023/09/22 05:48:36;;;;;;;0.80;0.80;;;;;13.20;94898.00;;;;4996706;28;20198;-57
2023/09/22 05:51:03;;;;;;;0.53;0.53;;;;;13.20;94906.00;;;;4996604;28;20585;-57
2023/09/22 05:53:31;;;;;;;0.70;0.70;;;;;13.30;94910.00;;;;4996712;28;20307;-57
2023/09/22 05:56:06;;;;;;;0.50;0.50;;;;;13.30;94919.00;;;;4996364;28;20213;-57
2023/09/22 05:58:34;;;;;;;0.87;0.87;;;;;13.20;94922.00;;;;4996508;28;20280;-57
2023/09/22 06:01:08;;;;;;;1.13;1.13;;;;;13.20;94930.00;;;;4996854;28;20214;-57
2023/09/22 06:03:36;;;;;;;1.00;1.00;;;;;13.20;94937.00;;;;4978758;28;20198;-57
2023/09/22 06:06:09;;;;;;;0.50;0.50;;;;;13.30;94924.00;;;;4996141;28;20598;-57
2023/09/22 06:08:37;;;;;;;0.60;0.60;;;;;13.20;94923.00;;;;4995032;28;20603;-56
2023/09/22 06:11:04;;;;;;;0.67;0.67;;;;;13.30;94912.00;;;;4998271;28;20213;-56
2023/09/22 06:13:33;;;;;;;0.57;0.57;;;;;13.50;94907.00;;;;5000025;28;20220;-61
2023/09/22 06:16:01;;;;;;;0.60;0.60;;;;;13.50;94912.00;;;;4997155;28;20213;-60
2023/09/22 06:18:28;;;;;;;0.60;0.60;;;;;13.70;94923.00;;;;5009993;28;20272;-61
2023/09/22 06:20:56;;;;;;;1.50;1.13;;;;;13.60;94925.00;;;;5013841;28;20197;-62
2023/09/22 06:23:24;;;;;;;0.87;0.87;;;;;13.60;94938.00;;;;5000978;28;20771;-61
2023/09/22 06:25:53;;;;;;;0.60;0.60;;;;;13.70;94933.00;;;;5012534;28;20293;-61
2023/09/22 06:28:20;;;;;;;0.73;0.73;;;;;13.50;94948.00;;;;5013676;28;20263;-57
2023/09/22 06:30:49;;;;;;;0.50;0.50;;;;;13.30;94939.00;;;;5001651;28;20228;-57
2023/09/22 06:33:17;;;;;;;0.60;0.60;;;;;13.40;94922.00;;;;5013674;28;20201;-57
2023/09/22 06:35:45;;;;;;;0.90;0.90;;;;;13.50;94920.00;;;;5013835;28;20190;-57
2023/09/22 06:38:14;;;;;;;0.70;0.70;;;;;13.60;94915.00;;;;5005315;28;20198;-57
2023/09/22 06:40:44;;;;;;;0.60;0.60;;;;;13.70;94908.00;;;;4997091;28;20204;-57
2023/09/22 06:43:12;;;;;;;0.67;0.67;;;;;13.60;94905.00;;;;5013785;28;20248;-57
2023/09/22 06:45:41;;;;;;;0.60;0.60;;;;;13.50;94886.00;;;;5013483;28;20527;-58
2023/09/22 06:48:11;;;;;;;0.80;0.80;;;;;13.50;94879.00;;;;5013235;28;20194;-57
2023/09/22 06:50:40;;;;;;;0.53;0.53;;;;;13.50;94890.00;;;;4995550;28;20197;-59
2023/09/22 06:53:07;;;;;;;0.50;0.50;;;;;13.60;94903.00;;;;4996349;28;20236;-57
2023/09/22 06:55:36;;;;;;;0.70;0.70;;;;;13.70;94914.00;;;;5013376;28;20213;-57
2023/09/22 06:58:06;;;;;;;0.60;0.60;;;;;13.80;94902.00;;;;4998237;28;20194;-57
2023/09/22 07:00:33;;;;;;;0.63;0.63;;;;;13.60;94907.00;;;;4993610;28;20229;-57
2023/09/22 07:03:01;;;;;;;0.60;0.60;;;;;13.70;94898.00;;;;4997829;28;20570;-58
2023/09/22 07:05:29;;;;;;;0.60;0.60;;;;;13.70;94891.00;;;;5003608;28;20197;-58
2023/09/22 07:07:57;;;;;;;0.60;0.60;;;;;13.90;94899.00;;;;4995025;28;20205;-58
2023/09/22 07:10:25;;;;;;;0.37;0.37;;;;;14.00;94902.00;;;;4976017;28;20244;-57
2023/09/22 07:12:52;;;;;;;0.40;0.40;;;;;14.10;94904.00;;;;4993040;28;20232;-58
2023/09/22 07:15:22;;;;;;;0.93;0.93;;;;;14.20;94904.00;;;;4992928;28;20352;-57
2023/09/22 07:17:49;;;;;;;0.63;0.63;;;;;14.30;94903.00;;;;4985811;28;20229;-57
2023/09/22 07:20:17;;;;;;;0.83;0.83;;;;;14.30;94904.00;;;;5007095;28;20197;-57
2023/09/22 07:22:47;;;;;;;0.67;0.67;;;;;14.20;94909.00;;;;5007642;28;20619;-58
2023/09/22 07:25:15;;;;;;;0.63;0.63;;;;;14.40;94920.00;;;;4992168;28;20186;-58
2023/09/22 07:27:44;;;;;;;0.50;0.50;;;;;14.60;94919.00;;;;4975148;28;20202;-57
2023/09/22 07:30:13;;;;;;;0.40;0.40;;;;;14.40;94930.00;;;;5010876;28;20224;-57
2023/09/22 07:32:41;;;;;;;0.60;0.60;;;;;14.40;94954.00;;;;5012031;28;20610;-57
2023/09/22 07:35:09;;;;;;;0.60;0.60;;;;;14.40;94959.00;;;;5011238;28;20217;-57
2023/09/22 07:37:37;;;;;;;0.67;0.67;;;;;14.10;94965.00;;;;4992852;28;20194;-57
2023/09/22 07:40:08;;;;;;;0.90;0.90;;;;;14.10;94960.00;;;;4996902;28;20201;-57
2023/09/22 07:42:38;;;;;;;0.50;0.50;;;;;14.10;94949.00;;;;4992692;28;20218;-58
2023/09/22 07:45:06;;;;;;;0.77;0.77;;;;;14.10;94930.00;;;;4992904;28;20200;-57
2023/09/22 07:47:34;;;;;;;0.60;0.60;;;;;14.10;94927.00;;;;4992649;28;20297;-57
2023/09/22 07:50:02;;;;;;;0.60;0.60;;;;;14.20;94956.00;;;;5010832;28;20742;-58
2023/09/22 07:52:30;;;;;;;0.70;0.70;;;;;14.20;94961.00;;;;4996170;28;21365;-57
2023/09/22 07:54:58;;;;;;;0.57;0.57;;;;;14.40;94962.00;;;;4993142;28;20620;-57
2023/09/22 07:57:30;;;;;;;0.60;0.60;;;;;14.50;94957.00;;;;4994589;28;20688;-57
2023/09/22 07:59:58;;;;;;;1.60;1.07;;;;;14.50;94954.00;;;;5012368;28;20189;-57
2023/09/22 08:02:25;;;;;;;0.80;0.80;;;;;14.70;94952.00;;;;4997249;28;20754;-57
2023/09/22 08:04:56;;;;;;;0.60;0.60;;;;;14.70;94955.00;;;;4992896;28;20640;-58
2023/09/22 08:07:24;;;;;;;0.80;0.80;;;;;14.80;94967.00;;;;4974380;28;20217;-58
2023/09/22 08:09:51;;;;;;;5.77;1.90;;;;;14.30;94967.00;;;;4992488;28;20198;-58
2023/09/22 08:12:19;;;;;;;0.60;0.60;;;;;14.40;94974.00;;;;4991693;28;20214;-57
2023/09/22 08:14:48;;;;;;;0.50;0.50;;;;;14.40;94977.00;;;;4991993;28;20225;-58
2023/09/22 08:17:16;;;;;;;0.60;0.60;;;;;14.20;94970.00;;;;4992130;28;20202;-58
2023/09/22 08:19:43;;;;;;;0.87;0.87;;;;;14.30;94969.00;;;;4999305;28;20205;-58
2023/09/22 08:22:11;;;;;;;0.60;0.60;;;;;14.60;94963.00;;;;4991774;28;20229;-58
2023/09/22 08:24:38;;;;;;;0.50;0.50;;;;;14.80;94980.00;;;;4992103;28;20245;-58
2023/09/22 08:27:06;;;;;;;0.60;0.60;;;;;14.70;94985.00;;;;5011506;28;20312;-58
2023/09/22 08:29:36;;;;;;;0.70;0.70;;;;;14.90;94972.00;;;;5011903;28;20208;-59
2023/09/22 08:32:06;;;;;;;0.60;0.60;;;;;15.00;94974.00;;;;5011244;28;20224;-58
2023/09/22 08:34:35;;;;;;;0.67;0.67;;;;;15.10;94969.00;;;;5009962;28;20299;-58
2023/09/22 08:37:03;;;;;;;0.50;0.50;;;;;14.90;94971.00;;;;4992977;28;20213;-56
2023/09/22 08:39:31;;;;;;;0.50;0.50;;;;;14.80;94969.00;;;;4992859;28;20197;-58
2023/09/22 08:41:59;;;;;;;0.70;0.70;;;;;15.00;94963.00;;;;4991764;28;20218;-58
2023/09/22 08:44:27;;;;;;;0.60;0.60;;;;;15.00;94964.00;;;;4992203;28;20191;-56
2023/09/22 08:46:55;;;;;;;0.70;0.70;;;;;15.40;94966.00;;;;5007905;28;20225;-57
2023/09/22 08:49:24;;;;;;;0.60;0.60;;;;;15.40;94969.00;;;;5011744;28;20251;-59
2023/09/22 08:51:51;;;;;;;0.80;0.80;;;;;15.50;94966.00;;;;5007439;28;20214;-57
2023/09/22 08:54:19;;;;;;;0.93;0.93;;;;;15.60;94965.00;;;;4992790;28;20221;-59
2023/09/22 08:56:47;;;;;;;0.70;0.70;;;;;15.70;94961.00;;;;4992786;28;20297;-57
2023/09/22 08:59:15;;;;;;;1.67;1.57;;;;;15.80;94975.00;;;;4992753;28;20257;-57
2023/09/22 09:01:42;;;;;;;0.50;0.50;;;;;16.00;94975.00;;;;4992489;28;20588;-56
2023/09/22 09:04:34;;;;;;;0.73;0.73;;;;;15.70;94981.00;;;;4992704;28;20202;-56
2023/09/22 09:07:02;;;;;;;0.60;0.60;;;;;16.10;94990.00;;;;4993460;28;21534;-56
2023/09/22 09:09:43;;;;;;;0.50;0.50;;;;;15.60;94984.00;;;;4992693;28;20198;-57
2023/09/22 09:12:11;;;;;;;0.50;0.50;;;;;15.50;94972.00;;;;4993107;28;20268;-57
2023/09/22 09:14:40;;;;;;;0.60;0.60;;;;;15.50;94967.00;;;;4993216;28;20221;-57
2023/09/22 09:17:20;;;;;;;0.73;0.73;;;;;15.80;94982.00;;;;4993231;28;20252;-58
2023/09/22 09:19:55;;;;;;;0.50;0.50;;;;;15.90;94988.00;;;;4992559;28;20269;-57
2023/09/22 09:22:24;;;;;;;0.57;0.57;;;;;15.10;94987.00;;;;4992475;28;20246;-56
2023/09/22 09:24:53;;;;;;;0.80;0.80;;;;;15.30;94987.00;;;;4992695;28;20225;-58
2023/09/22 09:27:21;;;;;;;0.60;0.60;;;;;15.60;94975.00;;;;4975177;28;20487;-57
2023/09/22 09:29:51;;;;;;;0.70;0.70;;;;;15.50;94976.00;;;;4992336;28;20277;-57
2023/09/22 09:32:25;;;;;;;0.70;0.70;;;;;16.00;94974.00;;;;4989741;28;20241;-58
2023/09/22 09:34:55;;;;;;;0.80;0.80;;;;;15.80;94967.00;;;;5012124;28;20756;-58
2023/09/22 09:37:23;;;;;;;0.63;0.63;;;;;16.20;94983.00;;;;5012131;28;20205;-58
2023/09/22 09:39:52;;;;;;;0.60;0.60;;;;;16.00;94992.00;;;;5012131;28;20256;-57
2023/09/22 09:42:22;;;;;;;0.67;0.67;;;;;15.50;94996.00;;;;5013769;28;20292;-57
2023/09/22 09:44:51;;;;;;;0.60;0.60;;;;;15.70;95004.00;;;;5015320;28;20197;-57
2023/09/22 09:47:23;;;;;;;0.70;0.70;;;;;15.80;95005.00;;;;5015483;28;20193;-57
2023/09/22 09:49:54;;;;;;;0.70;0.70;;;;;15.80;95004.00;;;;5015694;28;20667;-57
2023/09/22 09:52:27;;;;;;;0.70;0.70;;;;;15.80;95009.00;;;;4995701;28;20309;-57
2023/09/22 09:55:08;;;;;;;0.70;0.70;;;;;16.30;95005.00;;;;4995851;28;20292;-56
2023/09/22 09:57:38;;;;;;;0.40;0.40;;;;;16.00;95007.00;;;;5011514;28;20190;-57
2023/09/22 10:00:13;;;;;;;0.87;0.87;;;;;16.00;95000.00;;;;5014078;28;20292;-56
2023/09/22 10:02:43;;;;;;;0.60;0.60;;;;;16.40;94988.00;;;;5015494;28;20244;-57
2023/09/22 10:05:15;;;;;;;0.50;0.50;;;;;16.30;94979.00;;;;5015447;28;20193;-57
2023/09/22 10:07:43;;;;;;;0.53;0.53;;;;;16.90;94973.00;;;;5015271;28;20657;-56
2023/09/22 10:10:12;;;;;;;0.60;0.60;;;;;16.90;94982.00;;;;5015207;28;20201;-56
2023/09/22 10:12:41;;;;;;;0.70;0.70;;;;;16.70;94973.00;;;;5015290;28;20217;-56
2023/09/22 10:15:09;;;;;;;0.40;0.40;;;;;16.30;94974.00;;;;5015314;28;20217;-56
2023/09/22 10:17:36;;;;;;;0.50;0.50;;;;;17.10;94973.00;;;;5014793;28;20197;-57
2023/09/22 10:20:10;;;;;;;0.50;0.50;;;;;16.90;94946.00;;;;4997513;28;20209;-57
2023/09/22 10:22:39;;;;;;;0.50;0.50;;;;;16.50;94935.00;;;;5015073;28;20237;-57
2023/09/22 10:25:23;;;;;;;0.50;0.50;;;;;16.60;94958.00;;;;4997631;28;20201;-58
2023/09/22 10:27:55;;;;;;;0.77;0.77;;;;;16.60;94964.00;;;;5014587;28;20227;-59
2023/09/22 10:30:30;;;;;;;0.50;0.50;;;;;16.50;94952.00;;;;5015013;28;20200;-58
2023/09/22 10:33:29;;;;;;;0.80;0.80;;;;;16.50;94954.00;;;;5014557;28;20299;-57
2023/09/22 10:35:57;;;;;;;0.50;0.50;;;;;17.00;94986.00;;;;4994924;28;20214;-57
2023/09/22 10:38:26;;;;;;;0.57;0.57;;;;;16.50;94982.00;;;;4994633;28;20202;-57
2023/09/22 10:41:06;;;;;;;0.50;0.50;;;;;16.90;94982.00;;;;4994896;28;20294;-57
2023/09/22 10:43:34;;;;;;;0.50;0.50;;;;;17.00;94995.00;;;;4977245;28;20213;-57
2023/09/22 10:46:02;;;;;;;0.73;0.73;;;;;16.80;94999.00;;;;4994400;28;20198;-57
2023/09/22 10:48:35;;;;;;;9.10;0.90;;;;;16.80;94994.00;;;;4977055;28;20225;-57
2023/09/22 10:51:05;;;;;;;0.60;0.60;;;;;16.60;94990.00;;;;4994563;28;20218;-57
2023/09/22 10:53:38;;;;;;;0.50;0.50;;;17.20;61.30;16.80;95001.00;;;;4993841;28;20676;-57
2023/09/22 10:56:06;;;;;;;0.50;0.50;;;;;16.80;94962.00;;;;4994642;28;20217;-57
2023/09/22 10:58:34;;;;;;;0.40;0.40;;;;;17.60;94964.00;;;;4977092;28;20205;-57
2023/09/22 11:01:04;;;;;;;0.60;0.60;;;;;17.30;94956.00;;;;5005992;28;20573;-57
2023/09/22 11:03:35;;;;;;;0.50;0.50;;;;;17.00;94949.00;;;;5014325;28;20200;-61
2023/09/22 11:06:06;;;;;;;0.50;0.50;;;;;17.50;94974.00;;;;5014126;28;20189;-60
2023/09/22 11:08:35;;;;;;;0.57;0.57;;;;;17.20;94967.00;;;;5014332;28;20212;-60
2023/09/22 11:11:02;;;;;;;0.50;0.50;;;;;17.10;94978.00;;;;5013903;28;20222;-60
2023/09/22 11:13:30;;;;;;;0.53;0.53;;;;;17.00;94961.00;;;;4996428;28;20718;-61
2023/09/22 11:16:01;;;;;;;0.83;0.83;;;;;17.50;94959.00;;;;5013468;28;20217;-61
2023/09/22 11:18:31;;;;;;;0.67;0.67;;;;;17.60;94956.00;;;;5014135;28;20735;-61
2023/09/22 11:20:59;;;;;;;2.20;0.73;;;;;17.90;94962.00;;;;5013640;28;20808;-61
2023/09/22 11:23:27;;;;;;;0.60;0.60;;;;;17.80;94969.00;;;;5014059;28;20602;-58
2023/09/22 11:25:57;;;;;;;0.90;0.90;;;;;18.30;94961.00;;;;5013444;28;20675;-57
2023/09/22 11:28:26;;;;;;;1.50;1.33;;;;;18.30;94981.00;;;;5013456;28;20205;-58
2023/09/22 11:30:53;;;;;;;0.83;0.83;;;18.70;44.70;18.30;94967.00;;;;5013399;28;20661;-56
2023/09/22 11:33:21;;;;;;;0.50;0.50;;;;;18.30;94976.00;;;;5013595;28;20229;-56
2023/09/22 11:35:53;;;;;;;0.40;0.40;;;;;18.10;94970.00;;;;5013214;28;20327;-56
2023/09/22 11:38:26;;;;;;;0.70;0.70;;;;;18.90;94987.00;;;;4993905;28;20642;-56
2023/09/22 11:41:05;;;;;;;0.60;0.60;;;;;18.70;94986.00;;;;4990140;28;20296;-57
2023/09/22 11:43:32;;;;;;;0.47;0.47;;;;;18.20;94992.00;;;;4993705;28;20186;-59
2023/09/22 11:46:10;;;;;;;0.80;0.80;;;;;18.10;94999.00;;;;4993400;28;20202;-57
2023/09/22 11:48:59;;;;;;;0.50;0.50;;;;;18.00;94989.00;;;;4992469;28;20780;-57
2023/09/22 11:51:43;;;;;;;0.70;0.70;;;;;18.00;94975.00;;;;4993131;28;20268;-57
2023/09/22 11:54:12;;;;;;;0.47;0.47;;;;;18.10;94973.00;;;;4992649;28;20272;-57
2023/09/22 11:56:41;;;;;;;0.50;0.50;;;;;18.30;94972.00;;;;4989223;28;20225;-57
2023/09/22 11:59:09;;;;;;;0.53;0.53;;;;;18.60;94973.00;;;;5011591;28;20205;-57
2023/09/22 12:01:37;;;;;;;0.60;0.60;;;;;17.90;94978.00;;;;5011869;28;20763;-57
2023/09/22 12:04:06;;;;;;;0.70;0.70;;;;;17.80;94979.00;;;;4994107;28;20201;-57
2023/09/22 12:06:34;;;;;;;0.80;0.80;;;;;17.90;94973.00;;;;5000475;28;20201;-57
2023/09/22 12:09:02;;;;;;;0.50;0.50;;;;;18.00;94957.00;;;;4979013;28;20205;-57
2023/09/22 12:11:29;;;;;;;0.50;0.50;;;;;17.70;94963.00;;;;5007389;28;20243;-57
2023/09/22 12:13:58;;;;;;;0.60;0.60;;;;;18.60;94945.00;;;;4992202;28;20205;-57
2023/09/22 12:16:26;;;;;;;0.53;0.53;;;;;19.00;94961.00;;;;4991983;28;20218;-57
2023/09/22 12:18:54;;;;;;;0.93;0.93;;;;;18.90;94968.00;;;;4990727;28;20201;-57
2023/09/22 12:21:26;;;;;;;0.50;0.50;;;;;18.10;94978.00;;;;4974976;28;20230;-57
2023/09/22 12:23:54;;;;;;;0.50;0.50;;;;;18.40;94957.00;;;;4991641;28;20206;-57